sensor_id;sensor_type;location;lat;lon;timestamp;temperature;humidity
7366;DHT22;3723;52.220;8.792;2022-09-24T00:01:44;11.20;99.90
7366;DHT22;3723;52.220;8.792;2022-09-24T00:04:12;11.20;99.90
7366;DHT22;3723;52.220;8.792;2022-09-24T00:06:42;11.20;99.90
7366;DHT22;3723;52.220;8.792;2022-09-24T00:09:10;11.20;99.90
7366;DHT22;3723;52.220;8.792;2022-09-24T00:11:37;11.20;99.90
7366;DHT22;3723;52.220;8.792;2022-09-24T00:14:04;11.20;99.90
7366;DHT22;3723;52.220;8.792;2022-09-24T00:16:32;11.20;99.90
7366;DHT22;3723;52.220;8.792;2022-09-24T00:19:01;11.20;99.90
7366;DHT22;3723;52.220;8.792;2022-09-24T00:21:31;11.20;99.90
7366;DHT22;3723;52.220;8.792;2022-09-24T00:24:02;11.20;99.90
7366;DHT22;3723;52.220;8.792;2022-09-24T00:26:29;11.20;99.90
7366;DHT22;3723;52.220;8.792;2022-09-24T00:29:15;11.20;99.90
7366;DHT22;3723;52.220;8.792;2022-09-24T00:31:43;11.30;99.90
7366;DHT22;3723;52.220;8.792;2022-09-24T00:34:10;11.20;99.90
7366;DHT22;3723;52.220;8.792;2022-09-24T00:36:38;11.20;99.90
7366;DHT22;3723;52.220;8.792;2022-09-24T00:39:06;11.20;99.90
7366;DHT22;3723;52.220;8.792;2022-09-24T00:41:35;11.20;99.90
7366;DHT22;3723;52.220;8.792;2022-09-24T00:47:11;11.20;99.90
7366;DHT22;3723;52.220;8.792;2022-09-24T00:49:51;11.20;99.90
7366;DHT22;3723;52.220;8.792;2022-09-24T00:52:21;11.20;99.90
7366;DHT22;3723;52.220;8.792;2022-09-24T00:54:54;11.20;99.90
7366;DHT22;3723;52.220;8.792;2022-09-24T00:57:22;11.20;99.90
7366;DHT22;3723;52.220;8.792;2022-09-24T00:59:49;11.20;99.90
7366;DHT22;3723;52.220;8.792;2022-09-24T01:02:16;11.20;99.90
7366;DHT22;3723;52.220;8.792;2022-09-24T01:04:49;11.20;99.90
7366;DHT22;3723;52.220;8.792;2022-09-24T01:07:16;11.20;99.90
7366;DHT22;3723;52.220;8.792;2022-09-24T01:09:44;11.20;99.90
7366;DHT22;3723;52.220;8.792;2022-09-24T01:12:33;11.20;99.90
7366;DHT22;3723;52.220;8.792;2022-09-24T01:15:10;11.30;99.90
7366;DHT22;3723;52.220;8.792;2022-09-24T01:17:48;11.20;99.90
7366;DHT22;3723;52.220;8.792;2022-09-24T01:20:37;11.30;99.90
7366;DHT22;3723;52.220;8.792;2022-09-24T01:23:51;11.30;99.90
7366;DHT22;3723;52.220;8.792;2022-09-24T01:26:38;11.30;99.90
7366;DHT22;3723;52.220;8.792;2022-09-24T01:29:48;11.30;99.90
7366;DHT22;3723;52.220;8.792;2022-09-24T01:32:22;11.20;99.90
7366;DHT22;3723;52.220;8.792;2022-09-24T01:34:56;11.20;99.90
7366;DHT22;3723;52.220;8.792;2022-09-24T01:37:26;11.20;99.90
7366;DHT22;3723;52.220;8.792;2022-09-24T01:39:57;11.10;99.90
7366;DHT22;3723;52.220;8.792;2022-09-24T01:42:27;11.10;99.90
7366;DHT22;3723;52.220;8.792;2022-09-24T01:45:00;11.10;99.90
7366;DHT22;3723;52.220;8.792;2022-09-24T01:47:30;11.10;99.90
7366;DHT22;3723;52.220;8.792;2022-09-24T01:50:00;11.10;99.90
7366;DHT22;3723;52.220;8.792;2022-09-24T01:52:30;11.00;99.90
7366;DHT22;3723;52.220;8.792;2022-09-24T01:55:05;11.00;99.90
7366;DHT22;3723;52.220;8.792;2022-09-24T01:57:35;11.00;99.90
7366;DHT22;3723;52.220;8.792;2022-09-24T02:00:10;10.90;99.90
7366;DHT22;3723;52.220;8.792;2022-09-24T02:02:40;10.90;99.90
7366;DHT22;3723;52.220;8.792;2022-09-24T02:05:14;10.90;99.90
7366;DHT22;3723;52.220;8.792;2022-09-24T02:07:46;10.80;99.90
7366;DHT22;3723;52.220;8.792;2022-09-24T02:10:18;10.90;99.90
7366;DHT22;3723;52.220;8.792;2022-09-24T02:12:54;10.90;99.90
7366;DHT22;3723;52.220;8.792;2022-09-24T02:15:27;10.90;99.90
7366;DHT22;3723;52.220;8.792;2022-09-24T02:17:57;10.90;99.90
7366;DHT22;3723;52.220;8.792;2022-09-24T02:20:25;10.90;99.90
7366;DHT22;3723;52.220;8.792;2022-09-24T02:22:55;10.90;99.90
7366;DHT22;3723;52.220;8.792;2022-09-24T02:25:26;10.90;99.90
7366;DHT22;3723;52.220;8.792;2022-09-24T02:27:54;10.90;99.90
7366;DHT22;3723;52.220;8.792;2022-09-24T02:30:21;10.90;99.90
7366;DHT22;3723;52.220;8.792;2022-09-24T02:33:08;10.90;99.90
7366;DHT22;3723;52.220;8.792;2022-09-24T02:35:56;10.90;99.90
7366;DHT22;3723;52.220;8.792;2022-09-24T02:38:23;10.90;99.90
7366;DHT22;3723;52.220;8.792;2022-09-24T02:40:50;10.90;99.90
7366;DHT22;3723;52.220;8.792;2022-09-24T02:43:17;11.00;99.90
7366;DHT22;3723;52.220;8.792;2022-09-24T02:45:44;11.00;99.90
7366;DHT22;3723;52.220;8.792;2022-09-24T02:48:12;10.90;99.90
7366;DHT22;3723;52.220;8.792;2022-09-24T02:50:39;10.90;99.90
7366;DHT22;3723;52.220;8.792;2022-09-24T02:53:06;10.80;99.90
7366;DHT22;3723;52.220;8.792;2022-09-24T02:55:33;10.70;99.90
7366;DHT22;3723;52.220;8.792;2022-09-24T02:58:00;10.70;99.90
7366;DHT22;3723;52.220;8.792;2022-09-24T03:00:26;10.70;99.90
7366;DHT22;3723;52.220;8.792;2022-09-24T03:02:53;10.60;99.90
7366;DHT22;3723;52.220;8.792;2022-09-24T03:05:22;10.60;99.90
7366;DHT22;3723;52.220;8.792;2022-09-24T03:07:49;10.60;99.90
7366;DHT22;3723;52.220;8.792;2022-09-24T03:10:18;10.50;99.90
7366;DHT22;3723;52.220;8.792;2022-09-24T03:12:45;10.50;99.90
7366;DHT22;3723;52.220;8.792;2022-09-24T03:15:23;10.50;99.90
7366;DHT22;3723;52.220;8.792;2022-09-24T03:17:50;10.50;99.90
7366;DHT22;3723;52.220;8.792;2022-09-24T03:20:17;10.50;99.90
7366;DHT22;3723;52.220;8.792;2022-09-24T03:22:49;10.50;99.90
7366;DHT22;3723;52.220;8.792;2022-09-24T03:25:16;10.50;99.90
7366;DHT22;3723;52.220;8.792;2022-09-24T03:27:43;10.50;99.90
7366;DHT22;3723;52.220;8.792;2022-09-24T03:30:11;10.50;99.90
7366;DHT22;3723;52.220;8.792;2022-09-24T03:32:57;10.60;99.90
7366;DHT22;3723;52.220;8.792;2022-09-24T03:35:26;10.60;99.90
7366;DHT22;3723;52.220;8.792;2022-09-24T03:37:54;10.50;99.90
7366;DHT22;3723;52.220;8.792;2022-09-24T03:40:21;10.50;99.90
7366;DHT22;3723;52.220;8.792;2022-09-24T03:42:48;10.50;99.90
7366;DHT22;3723;52.220;8.792;2022-09-24T03:45:16;10.50;99.90
7366;DHT22;3723;52.220;8.792;2022-09-24T03:47:46;10.50;99.90
7366;DHT22;3723;52.220;8.792;2022-09-24T03:50:17;10.50;99.90
7366;DHT22;3723;52.220;8.792;2022-09-24T03:52:44;10.50;99.90
7366;DHT22;3723;52.220;8.792;2022-09-24T03:55:14;10.50;99.90
7366;DHT22;3723;52.220;8.792;2022-09-24T03:57:41;10.50;99.90
7366;DHT22;3723;52.220;8.792;2022-09-24T04:00:09;10.50;99.90
7366;DHT22;3723;52.220;8.792;2022-09-24T04:02:36;10.50;99.90
7366;DHT22;3723;52.220;8.792;2022-09-24T04:05:05;10.50;99.90
7366;DHT22;3723;52.220;8.792;2022-09-24T04:07:32;10.50;99.90
7366;DHT22;3723;52.220;8.792;2022-09-24T04:09:59;10.50;99.90
7366;DHT22;3723;52.220;8.792;2022-09-24T04:12:27;10.50;99.90
7366;DHT22;3723;52.220;8.792;2022-09-24T04:14:55;10.40;99.90
7366;DHT22;3723;52.220;8.792;2022-09-24T04:17:22;10.40;99.90
7366;DHT22;3723;52.220;8.792;2022-09-24T04:19:53;10.40;99.90
7366;DHT22;3723;52.220;8.792;2022-09-24T04:22:20;10.30;99.90
7366;DHT22;3723;52.220;8.792;2022-09-24T04:24:47;10.20;99.90
7366;DHT22;3723;52.220;8.792;2022-09-24T04:27:15;10.30;99.90
7366;DHT22;3723;52.220;8.792;2022-09-24T04:29:44;10.30;99.90
7366;DHT22;3723;52.220;8.792;2022-09-24T04:32:12;10.20;99.90
7366;DHT22;3723;52.220;8.792;2022-09-24T04:34:38;10.20;99.90
7366;DHT22;3723;52.220;8.792;2022-09-24T04:37:05;10.30;99.90
7366;DHT22;3723;52.220;8.792;2022-09-24T04:39:34;10.30;99.90
7366;DHT22;3723;52.220;8.792;2022-09-24T04:42:00;10.40;99.90
7366;DHT22;3723;52.220;8.792;2022-09-24T04:44:27;10.40;99.90
7366;DHT22;3723;52.220;8.792;2022-09-24T04:46:57;10.40;99.90
7366;DHT22;3723;52.220;8.792;2022-09-24T04:49:28;10.50;99.90
7366;DHT22;3723;52.220;8.792;2022-09-24T04:51:55;10.60;99.90
7366;DHT22;3723;52.220;8.792;2022-09-24T04:54:23;10.60;99.90
7366;DHT22;3723;52.220;8.792;2022-09-24T04:56:52;10.60;99.90
7366;DHT22;3723;52.220;8.792;2022-09-24T04:59:18;10.60;99.90
7366;DHT22;3723;52.220;8.792;2022-09-24T05:01:45;10.60;99.90
7366;DHT22;3723;52.220;8.792;2022-09-24T05:04:14;10.60;99.90
7366;DHT22;3723;52.220;8.792;2022-09-24T05:06:41;10.60;99.90
7366;DHT22;3723;52.220;8.792;2022-09-24T05:09:07;10.60;99.90
7366;DHT22;3723;52.220;8.792;2022-09-24T05:11:34;10.60;99.90
7366;DHT22;3723;52.220;8.792;2022-09-24T05:14:02;10.60;99.90
7366;DHT22;3723;52.220;8.792;2022-09-24T05:16:30;10.60;99.90
7366;DHT22;3723;52.220;8.792;2022-09-24T05:18:57;10.60;99.90
7366;DHT22;3723;52.220;8.792;2022-09-24T05:21:25;10.60;99.90
7366;DHT22;3723;52.220;8.792;2022-09-24T05:23:52;10.60;99.90
7366;DHT22;3723;52.220;8.792;2022-09-24T05:26:19;10.60;99.90
7366;DHT22;3723;52.220;8.792;2022-09-24T05:29:03;10.60;99.90
7366;DHT22;3723;52.220;8.792;2022-09-24T05:31:30;10.60;99.90
7366;DHT22;3723;52.220;8.792;2022-09-24T05:33:58;10.60;99.90
7366;DHT22;3723;52.220;8.792;2022-09-24T05:36:26;10.60;99.90
7366;DHT22;3723;52.220;8.792;2022-09-24T05:38:53;10.70;99.90
7366;DHT22;3723;52.220;8.792;2022-09-24T05:41:21;10.70;99.90
7366;DHT22;3723;52.220;8.792;2022-09-24T05:43:48;10.70;99.90
7366;DHT22;3723;52.220;8.792;2022-09-24T05:46:16;10.80;99.90
7366;DHT22;3723;52.220;8.792;2022-09-24T05:48:43;10.80;99.90
7366;DHT22;3723;52.220;8.792;2022-09-24T05:51:10;10.80;99.90
7366;DHT22;3723;52.220;8.792;2022-09-24T05:53:38;10.90;99.90
7366;DHT22;3723;52.220;8.792;2022-09-24T05:56:06;10.90;99.90
7366;DHT22;3723;52.220;8.792;2022-09-24T05:58:34;10.90;99.90
7366;DHT22;3723;52.220;8.792;2022-09-24T06:01:01;11.00;99.90
7366;DHT22;3723;52.220;8.792;2022-09-24T06:03:29;11.00;99.90
7366;DHT22;3723;52.220;8.792;2022-09-24T06:05:56;11.00;99.90
7366;DHT22;3723;52.220;8.792;2022-09-24T06:08:24;11.10;99.90
7366;DHT22;3723;52.220;8.792;2022-09-24T06:10:57;11.10;99.90
7366;DHT22;3723;52.220;8.792;2022-09-24T06:13:24;11.20;99.90
7366;DHT22;3723;52.220;8.792;2022-09-24T06:15:51;11.20;99.90
7366;DHT22;3723;52.220;8.792;2022-09-24T06:18:18;11.20;99.90
7366;DHT22;3723;52.220;8.792;2022-09-24T06:20:45;11.30;99.90
7366;DHT22;3723;52.220;8.792;2022-09-24T06:23:12;11.30;99.90
7366;DHT22;3723;52.220;8.792;2022-09-24T06:25:39;11.30;99.90
7366;DHT22;3723;52.220;8.792;2022-09-24T06:28:07;11.40;99.90
7366;DHT22;3723;52.220;8.792;2022-09-24T06:30:36;11.50;99.90
7366;DHT22;3723;52.220;8.792;2022-09-24T06:33:05;11.50;99.90
7366;DHT22;3723;52.220;8.792;2022-09-24T06:35:33;11.50;99.90
7366;DHT22;3723;52.220;8.792;2022-09-24T06:38:01;11.60;99.90
7366;DHT22;3723;52.220;8.792;2022-09-24T06:40:34;11.60;99.90
7366;DHT22;3723;52.220;8.792;2022-09-24T06:43:06;11.60;99.90
7366;DHT22;3723;52.220;8.792;2022-09-24T06:45:33;11.60;99.90
7366;DHT22;3723;52.220;8.792;2022-09-24T06:48:02;11.70;99.90
7366;DHT22;3723;52.220;8.792;2022-09-24T06:50:38;11.80;99.90
7366;DHT22;3723;52.220;8.792;2022-09-24T06:53:07;12.00;99.90
7366;DHT22;3723;52.220;8.792;2022-09-24T06:55:34;12.10;99.90
7366;DHT22;3723;52.220;8.792;2022-09-24T06:58:09;12.30;99.90
7366;DHT22;3723;52.220;8.792;2022-09-24T07:00:37;12.40;99.90
7366;DHT22;3723;52.220;8.792;2022-09-24T07:03:04;12.60;99.90
7366;DHT22;3723;52.220;8.792;2022-09-24T07:05:32;12.60;99.90
7366;DHT22;3723;52.220;8.792;2022-09-24T07:07:59;12.60;99.90
7366;DHT22;3723;52.220;8.792;2022-09-24T07:10:27;12.60;99.90
7366;DHT22;3723;52.220;8.792;2022-09-24T07:12:54;12.60;99.90
7366;DHT22;3723;52.220;8.792;2022-09-24T07:15:29;12.60;99.90
7366;DHT22;3723;52.220;8.792;2022-09-24T07:17:56;12.50;99.90
7366;DHT22;3723;52.220;8.792;2022-09-24T07:20:24;12.50;99.90
7366;DHT22;3723;52.220;8.792;2022-09-24T07:22:52;12.40;99.90
7366;DHT22;3723;52.220;8.792;2022-09-24T07:25:21;12.40;99.90
7366;DHT22;3723;52.220;8.792;2022-09-24T07:27:48;12.40;99.90
7366;DHT22;3723;52.220;8.792;2022-09-24T07:30:18;12.40;99.90
7366;DHT22;3723;52.220;8.792;2022-09-24T07:32:46;12.40;99.90
7366;DHT22;3723;52.220;8.792;2022-09-24T07:35:15;12.50;99.90
7366;DHT22;3723;52.220;8.792;2022-09-24T07:37:43;12.60;99.90
7366;DHT22;3723;52.220;8.792;2022-09-24T07:40:12;12.60;99.90
7366;DHT22;3723;52.220;8.792;2022-09-24T07:42:45;12.70;99.90
7366;DHT22;3723;52.220;8.792;2022-09-24T07:45:12;12.70;99.90
7366;DHT22;3723;52.220;8.792;2022-09-24T07:47:42;12.70;99.90
7366;DHT22;3723;52.220;8.792;2022-09-24T07:50:10;12.70;99.90
7366;DHT22;3723;52.220;8.792;2022-09-24T07:52:38;12.80;99.90
7366;DHT22;3723;52.220;8.792;2022-09-24T07:55:06;12.80;99.90
7366;DHT22;3723;52.220;8.792;2022-09-24T07:57:52;12.80;99.90
7366;DHT22;3723;52.220;8.792;2022-09-24T08:00:25;12.80;99.90
7366;DHT22;3723;52.220;8.792;2022-09-24T08:02:52;12.80;99.90
7366;DHT22;3723;52.220;8.792;2022-09-24T08:05:22;12.90;99.90
7366;DHT22;3723;52.220;8.792;2022-09-24T08:07:55;12.90;99.90
7366;DHT22;3723;52.220;8.792;2022-09-24T08:10:24;12.90;99.90
7366;DHT22;3723;52.220;8.792;2022-09-24T08:13:03;13.00;99.90
7366;DHT22;3723;52.220;8.792;2022-09-24T08:15:35;13.10;99.90
7366;DHT22;3723;52.220;8.792;2022-09-24T08:18:03;13.10;99.90
7366;DHT22;3723;52.220;8.792;2022-09-24T08:20:34;13.20;99.90
7366;DHT22;3723;52.220;8.792;2022-09-24T08:23:03;13.30;99.90
7366;DHT22;3723;52.220;8.792;2022-09-24T08:25:30;13.30;99.90
7366;DHT22;3723;52.220;8.792;2022-09-24T08:28:00;13.40;99.90
7366;DHT22;3723;52.220;8.792;2022-09-24T08:30:27;13.50;99.90
7366;DHT22;3723;52.220;8.792;2022-09-24T08:32:55;13.60;99.90
7366;DHT22;3723;52.220;8.792;2022-09-24T08:35:22;13.70;99.90
7366;DHT22;3723;52.220;8.792;2022-09-24T08:37:52;13.80;99.90
7366;DHT22;3723;52.220;8.792;2022-09-24T08:40:24;13.80;99.90
7366;DHT22;3723;52.220;8.792;2022-09-24T08:43:03;13.90;99.90
7366;DHT22;3723;52.220;8.792;2022-09-24T08:45:41;13.90;99.90
7366;DHT22;3723;52.220;8.792;2022-09-24T08:48:31;13.90;99.90
7366;DHT22;3723;52.220;8.792;2022-09-24T08:51:03;14.00;99.90
7366;DHT22;3723;52.220;8.792;2022-09-24T08:53:44;14.00;99.90
7366;DHT22;3723;52.220;8.792;2022-09-24T08:56:13;14.10;99.90
7366;DHT22;3723;52.220;8.792;2022-09-24T08:58:45;14.20;99.90
7366;DHT22;3723;52.220;8.792;2022-09-24T09:01:23;14.20;99.90
7366;DHT22;3723;52.220;8.792;2022-09-24T09:03:57;14.30;99.90
7366;DHT22;3723;52.220;8.792;2022-09-24T09:06:57;14.30;99.90
7366;DHT22;3723;52.220;8.792;2022-09-24T09:09:41;14.40;99.90
7366;DHT22;3723;52.220;8.792;2022-09-24T09:12:14;14.50;99.90
7366;DHT22;3723;52.220;8.792;2022-09-24T09:14:47;14.50;99.90
7366;DHT22;3723;52.220;8.792;2022-09-24T09:17:26;14.60;99.90
7366;DHT22;3723;52.220;8.792;2022-09-24T09:19:56;14.50;99.90
7366;DHT22;3723;52.220;8.792;2022-09-24T09:22:29;14.50;99.90
7366;DHT22;3723;52.220;8.792;2022-09-24T09:25:03;14.60;99.90
7366;DHT22;3723;52.220;8.792;2022-09-24T09:27:35;14.60;99.90
7366;DHT22;3723;52.220;8.792;2022-09-24T09:30:12;14.70;99.90
7366;DHT22;3723;52.220;8.792;2022-09-24T09:33:00;14.70;99.90
7366;DHT22;3723;52.220;8.792;2022-09-24T09:35:36;14.70;99.90
7366;DHT22;3723;52.220;8.792;2022-09-24T09:38:13;14.70;99.90
7366;DHT22;3723;52.220;8.792;2022-09-24T09:40:54;14.70;99.90
7366;DHT22;3723;52.220;8.792;2022-09-24T09:43:23;14.70;99.90
7366;DHT22;3723;52.220;8.792;2022-09-24T09:45:58;14.60;99.90
7366;DHT22;3723;52.220;8.792;2022-09-24T09:48:38;14.60;99.90
7366;DHT22;3723;52.220;8.792;2022-09-24T09:51:15;14.70;99.90
7366;DHT22;3723;52.220;8.792;2022-09-24T09:53:53;14.70;99.90
7366;DHT22;3723;52.220;8.792;2022-09-24T09:56:24;14.70;99.90
7366;DHT22;3723;52.220;8.792;2022-09-24T09:59:01;14.80;99.90
7366;DHT22;3723;52.220;8.792;2022-09-24T10:01:31;14.80;99.90
7366;DHT22;3723;52.220;8.792;2022-09-24T10:03:58;14.90;99.90
7366;DHT22;3723;52.220;8.792;2022-09-24T10:06:30;15.00;99.90
7366;DHT22;3723;52.220;8.792;2022-09-24T10:09:11;15.10;99.90
7366;DHT22;3723;52.220;8.792;2022-09-24T10:11:43;15.20;99.90
7366;DHT22;3723;52.220;8.792;2022-09-24T10:14:14;15.30;99.90
7366;DHT22;3723;52.220;8.792;2022-09-24T10:16:46;15.30;99.90
7366;DHT22;3723;52.220;8.792;2022-09-24T10:19:19;15.50;99.90
7366;DHT22;3723;52.220;8.792;2022-09-24T10:21:46;15.50;99.90
7366;DHT22;3723;52.220;8.792;2022-09-24T10:24:18;15.50;99.90
7366;DHT22;3723;52.220;8.792;2022-09-24T10:26:48;15.60;99.90
7366;DHT22;3723;52.220;8.792;2022-09-24T10:29:18;15.40;99.90
7366;DHT22;3723;52.220;8.792;2022-09-24T10:32:04;15.20;99.90
7366;DHT22;3723;52.220;8.792;2022-09-24T10:34:32;15.00;99.90
7366;DHT22;3723;52.220;8.792;2022-09-24T10:37:00;14.90;99.90
7366;DHT22;3723;52.220;8.792;2022-09-24T10:39:28;14.80;99.90
7366;DHT22;3723;52.220;8.792;2022-09-24T10:42:01;14.70;99.90
7366;DHT22;3723;52.220;8.792;2022-09-24T10:44:35;14.70;99.90
7366;DHT22;3723;52.220;8.792;2022-09-24T10:47:12;14.70;99.90
7366;DHT22;3723;52.220;8.792;2022-09-24T10:50:02;14.80;99.90
7366;DHT22;3723;52.220;8.792;2022-09-24T10:52:43;14.70;99.90
7366;DHT22;3723;52.220;8.792;2022-09-24T10:55:31;14.80;99.90
7366;DHT22;3723;52.220;8.792;2022-09-24T10:58:11;14.90;99.90
7366;DHT22;3723;52.220;8.792;2022-09-24T11:00:55;14.90;99.90
7366;DHT22;3723;52.220;8.792;2022-09-24T11:03:52;15.00;99.90
7366;DHT22;3723;52.220;8.792;2022-09-24T11:09:19;15.00;99.90
7366;DHT22;3723;52.220;8.792;2022-09-24T11:11:56;15.00;99.90
7366;DHT22;3723;52.220;8.792;2022-09-24T11:14:52;14.90;99.90
7366;DHT22;3723;52.220;8.792;2022-09-24T11:17:31;14.90;99.90
7366;DHT22;3723;52.220;8.792;2022-09-24T11:20:10;14.90;99.90
7366;DHT22;3723;52.220;8.792;2022-09-24T11:22:51;14.90;99.90
7366;DHT22;3723;52.220;8.792;2022-09-24T11:25:28;14.90;99.90
7366;DHT22;3723;52.220;8.792;2022-09-24T11:28:10;14.90;99.90
7366;DHT22;3723;52.220;8.792;2022-09-24T11:30:53;14.90;99.90
7366;DHT22;3723;52.220;8.792;2022-09-24T11:33:32;14.90;99.90
7366;DHT22;3723;52.220;8.792;2022-09-24T11:36:17;14.90;99.90
7366;DHT22;3723;52.220;8.792;2022-09-24T11:39:00;14.90;99.90
7366;DHT22;3723;52.220;8.792;2022-09-24T11:41:38;14.80;99.90
7366;DHT22;3723;52.220;8.792;2022-09-24T11:47:10;14.60;99.90
7366;DHT22;3723;52.220;8.792;2022-09-24T11:49:52;14.50;99.90
7366;DHT22;3723;52.220;8.792;2022-09-24T11:52:32;14.60;99.90
7366;DHT22;3723;52.220;8.792;2022-09-24T11:55:09;14.60;99.90
7366;DHT22;3723;52.220;8.792;2022-09-24T11:57:47;14.60;99.90
7366;DHT22;3723;52.220;8.792;2022-09-24T12:00:17;14.50;99.90
7366;DHT22;3723;52.220;8.792;2022-09-24T12:02:49;14.60;99.90
7366;DHT22;3723;52.220;8.792;2022-09-24T12:05:24;14.70;99.90
7366;DHT22;3723;52.220;8.792;2022-09-24T12:07:59;14.70;99.90
7366;DHT22;3723;52.220;8.792;2022-09-24T12:10:34;14.60;99.90
7366;DHT22;3723;52.220;8.792;2022-09-24T12:13:10;14.70;99.90
7366;DHT22;3723;52.220;8.792;2022-09-24T12:15:47;14.80;99.90
7366;DHT22;3723;52.220;8.792;2022-09-24T12:18:20;14.80;99.90
7366;DHT22;3723;52.220;8.792;2022-09-24T12:20:51;14.80;99.90
7366;DHT22;3723;52.220;8.792;2022-09-24T12:23:24;14.90;99.90
7366;DHT22;3723;52.220;8.792;2022-09-24T12:25:53;14.80;99.90
7366;DHT22;3723;52.220;8.792;2022-09-24T12:28:23;14.90;99.90
7366;DHT22;3723;52.220;8.792;2022-09-24T12:31:12;15.00;99.90
7366;DHT22;3723;52.220;8.792;2022-09-24T12:34:08;15.00;99.90
7366;DHT22;3723;52.220;8.792;2022-09-24T12:36:49;15.00;99.90
7366;DHT22;3723;52.220;8.792;2022-09-24T12:39:23;15.10;99.90
7366;DHT22;3723;52.220;8.792;2022-09-24T12:41:58;15.20;99.90
7366;DHT22;3723;52.220;8.792;2022-09-24T12:44:35;15.20;99.90
7366;DHT22;3723;52.220;8.792;2022-09-24T12:47:04;15.20;99.90
7366;DHT22;3723;52.220;8.792;2022-09-24T12:49:40;15.20;99.90
7366;DHT22;3723;52.220;8.792;2022-09-24T12:52:16;15.30;99.90
7366;DHT22;3723;52.220;8.792;2022-09-24T12:54:44;15.40;99.90
7366;DHT22;3723;52.220;8.792;2022-09-24T12:57:15;15.50;99.90
7366;DHT22;3723;52.220;8.792;2022-09-24T12:59:48;15.50;99.90
7366;DHT22;3723;52.220;8.792;2022-09-24T13:02:17;15.50;99.90
7366;DHT22;3723;52.220;8.792;2022-09-24T13:05:03;15.60;99.90
7366;DHT22;3723;52.220;8.792;2022-09-24T13:07:32;15.70;99.90
7366;DHT22;3723;52.220;8.792;2022-09-24T13:10:16;15.90;99.90
7366;DHT22;3723;52.220;8.792;2022-09-24T13:12:47;15.90;99.90
7366;DHT22;3723;52.220;8.792;2022-09-24T13:15:22;15.90;99.90
7366;DHT22;3723;52.220;8.792;2022-09-24T13:18:15;15.80;99.90
7366;DHT22;3723;52.220;8.792;2022-09-24T13:20:56;15.80;99.90
7366;DHT22;3723;52.220;8.792;2022-09-24T13:23:43;15.80;99.90
7366;DHT22;3723;52.220;8.792;2022-09-24T13:26:24;15.70;99.90
7366;DHT22;3723;52.220;8.792;2022-09-24T13:28:53;15.80;99.90
7366;DHT22;3723;52.220;8.792;2022-09-24T13:31:29;15.80;99.90
7366;DHT22;3723;52.220;8.792;2022-09-24T13:33:59;15.80;99.90
7366;DHT22;3723;52.220;8.792;2022-09-24T13:36:37;15.90;99.90
7366;DHT22;3723;52.220;8.792;2022-09-24T13:39:12;15.90;99.90
7366;DHT22;3723;52.220;8.792;2022-09-24T13:41:44;15.80;99.90
7366;DHT22;3723;52.220;8.792;2022-09-24T13:44:16;15.60;99.90
7366;DHT22;3723;52.220;8.792;2022-09-24T13:46:50;15.60;99.90
7366;DHT22;3723;52.220;8.792;2022-09-24T13:49:19;15.60;99.90
7366;DHT22;3723;52.220;8.792;2022-09-24T13:51:56;15.50;99.90
7366;DHT22;3723;52.220;8.792;2022-09-24T13:56:56;15.50;99.90
7366;DHT22;3723;52.220;8.792;2022-09-24T13:59:27;15.50;99.90
7366;DHT22;3723;52.220;8.792;2022-09-24T14:01:59;15.50;99.90
7366;DHT22;3723;52.220;8.792;2022-09-24T14:04:43;15.50;99.90
7366;DHT22;3723;52.220;8.792;2022-09-24T14:07:19;15.30;99.90
7366;DHT22;3723;52.220;8.792;2022-09-24T14:09:46;15.30;99.90
7366;DHT22;3723;52.220;8.792;2022-09-24T14:12:15;15.30;99.90
7366;DHT22;3723;52.220;8.792;2022-09-24T14:14:45;15.30;99.90
7366;DHT22;3723;52.220;8.792;2022-09-24T14:17:19;15.20;99.90
7366;DHT22;3723;52.220;8.792;2022-09-24T14:19:47;15.10;99.90
7366;DHT22;3723;52.220;8.792;2022-09-24T14:22:23;15.10;99.90
7366;DHT22;3723;52.220;8.792;2022-09-24T14:24:54;15.00;99.90
7366;DHT22;3723;52.220;8.792;2022-09-24T14:27:24;15.10;99.90
7366;DHT22;3723;52.220;8.792;2022-09-24T14:29:54;15.00;99.90
7366;DHT22;3723;52.220;8.792;2022-09-24T14:32:26;14.90;99.90
7366;DHT22;3723;52.220;8.792;2022-09-24T14:34:56;15.00;99.90
7366;DHT22;3723;52.220;8.792;2022-09-24T14:37:27;14.90;99.90
7366;DHT22;3723;52.220;8.792;2022-09-24T14:39:59;15.00;99.90
7366;DHT22;3723;52.220;8.792;2022-09-24T14:42:30;15.00;99.90
7366;DHT22;3723;52.220;8.792;2022-09-24T14:45:02;15.00;99.90
7366;DHT22;3723;52.220;8.792;2022-09-24T14:47:33;15.00;99.90
7366;DHT22;3723;52.220;8.792;2022-09-24T14:50:02;14.90;99.90
7366;DHT22;3723;52.220;8.792;2022-09-24T14:52:34;14.90;99.90
7366;DHT22;3723;52.220;8.792;2022-09-24T14:55:11;14.80;99.90
7366;DHT22;3723;52.220;8.792;2022-09-24T14:57:39;14.70;99.90
7366;DHT22;3723;52.220;8.792;2022-09-24T15:00:22;14.70;99.90
7366;DHT22;3723;52.220;8.792;2022-09-24T15:02:54;14.60;99.90
7366;DHT22;3723;52.220;8.792;2022-09-24T15:05:23;14.60;99.90
7366;DHT22;3723;52.220;8.792;2022-09-24T15:07:53;14.50;99.90
7366;DHT22;3723;52.220;8.792;2022-09-24T15:10:32;14.50;99.90
7366;DHT22;3723;52.220;8.792;2022-09-24T15:12:59;14.50;99.90
7366;DHT22;3723;52.220;8.792;2022-09-24T15:15:28;14.50;99.90
7366;DHT22;3723;52.220;8.792;2022-09-24T15:17:56;14.40;99.90
7366;DHT22;3723;52.220;8.792;2022-09-24T15:20:29;14.40;99.90
7366;DHT22;3723;52.220;8.792;2022-09-24T15:22:57;14.30;99.90
7366;DHT22;3723;52.220;8.792;2022-09-24T15:25:24;14.30;99.90
7366;DHT22;3723;52.220;8.792;2022-09-24T15:27:51;14.30;99.90
7366;DHT22;3723;52.220;8.792;2022-09-24T15:30:21;14.30;99.90
7366;DHT22;3723;52.220;8.792;2022-09-24T15:32:48;14.30;99.90
7366;DHT22;3723;52.220;8.792;2022-09-24T15:35:15;14.30;99.90
7366;DHT22;3723;52.220;8.792;2022-09-24T15:37:42;14.20;99.90
7366;DHT22;3723;52.220;8.792;2022-09-24T15:40:18;14.10;99.90
7366;DHT22;3723;52.220;8.792;2022-09-24T15:42:50;14.10;99.90
7366;DHT22;3723;52.220;8.792;2022-09-24T15:45:19;14.00;99.90
7366;DHT22;3723;52.220;8.792;2022-09-24T15:47:48;13.90;99.90
7366;DHT22;3723;52.220;8.792;2022-09-24T15:50:18;13.90;99.90
7366;DHT22;3723;52.220;8.792;2022-09-24T15:52:49;13.80;99.90
7366;DHT22;3723;52.220;8.792;2022-09-24T15:55:20;13.80;99.90
7366;DHT22;3723;52.220;8.792;2022-09-24T15:57:49;13.80;99.90
7366;DHT22;3723;52.220;8.792;2022-09-24T16:00:17;13.80;99.90
7366;DHT22;3723;52.220;8.792;2022-09-24T16:02:47;13.80;99.90
7366;DHT22;3723;52.220;8.792;2022-09-24T16:05:17;13.70;99.90
7366;DHT22;3723;52.220;8.792;2022-09-24T16:07:44;13.80;99.90
7366;DHT22;3723;52.220;8.792;2022-09-24T16:10:12;13.80;99.90
7366;DHT22;3723;52.220;8.792;2022-09-24T16:12:41;13.70;99.90
7366;DHT22;3723;52.220;8.792;2022-09-24T16:15:11;13.80;99.90
7366;DHT22;3723;52.220;8.792;2022-09-24T16:17:38;13.70;99.90
7366;DHT22;3723;52.220;8.792;2022-09-24T16:20:06;13.70;99.90
7366;DHT22;3723;52.220;8.792;2022-09-24T16:22:34;13.70;99.90
7366;DHT22;3723;52.220;8.792;2022-09-24T16:25:01;13.70;1.00
7366;DHT22;3723;52.220;8.792;2022-09-24T16:27:28;13.60;1.00
7366;DHT22;3723;52.220;8.792;2022-09-24T16:29:57;13.60;1.00
7366;DHT22;3723;52.220;8.792;2022-09-24T16:32:25;13.60;1.00
7366;DHT22;3723;52.220;8.792;2022-09-24T16:34:51;13.50;1.00
7366;DHT22;3723;52.220;8.792;2022-09-24T16:37:19;13.50;1.00
7366;DHT22;3723;52.220;8.792;2022-09-24T16:39:46;13.40;1.00
7366;DHT22;3723;52.220;8.792;2022-09-24T16:42:13;13.30;99.90
7366;DHT22;3723;52.220;8.792;2022-09-24T16:44:40;13.30;1.00